Main page
METAR-TAF:

METAR-TAF

Airports :

Cervia Air Base

Cervia, Italy

latitude: 44-13N, longitude: 012-18E, elevation: 6 m

Current weather observation

The report was made 39 minutes ago, at 17:55 UTC
Wind 5 kt from the Southwest
Temperature 25°C
Humidity 39%
Pressure 1016 hPa
Visibility 10 km or more
no clouds below 1500 m and no cumulonimbus

METAR: LIPC 141755Z 22005KT CAVOK 25/10 Q1016 RMK FEW FEW200 VIS MIN 9999 WIND THR11 24007KT WIND THR29 15006KT BLU

Time: 20:34 (18:34 UTC)

Forecast

The report was made 1 hour and 34 minutes ago, at 17:00 UTC
Forecast valid from 14 at 18 UTC to 15 at 03 UTC
Wind 10 kt from the Southwest
Visibility 10 km or more
no clouds below 1500 m and no cumulonimbus

TAF: LIPC 141700Z 1418/1503 23010KT CAVOK

Weather observations and forecasts of more than 4000 airports (METAR and TAF reports).

The available stations are represented by yellow and red dots on the map.

Hover mouse over dot to see the name of the station.

Then click to see weather observations and forecasts.

To change the map : click on the green buttons with a black cross to zoom in, on the green button with a dash to zoom out, or on the green arrows for adjacent maps.


METAR-TAF: